createdAt,value
2023-01-15T00:01:42.952Z,149.90
2023-01-15T00:04:12.612Z,143.57
2023-01-15T00:06:41.653Z,121.00
2023-01-15T00:09:09.766Z,130.13
2023-01-15T00:11:37.170Z,146.10
2023-01-15T00:14:04.640Z,122.57
2023-01-15T00:16:32.069Z,131.03
2023-01-15T00:19:01.660Z,128.80
2023-01-15T00:21:29.807Z,133.00
2023-01-15T00:24:14.975Z,120.97
2023-01-15T00:26:59.849Z,135.37
2023-01-15T00:29:27.289Z,129.97
2023-01-15T00:31:56.607Z,130.13
2023-01-15T00:34:25.758Z,123.97
2023-01-15T00:36:53.283Z,134.27
2023-01-15T00:39:21.102Z,132.50
2023-01-15T00:41:48.883Z,134.90
2023-01-15T00:44:16.337Z,131.90
2023-01-15T00:46:43.779Z,110.20
2023-01-15T00:49:11.296Z,142.90
2023-01-15T00:51:40.029Z,142.40
2023-01-15T00:54:07.421Z,128.07
2023-01-15T00:56:34.902Z,113.10
2023-01-15T00:59:02.528Z,90.70
2023-01-15T01:01:30.158Z,114.60
2023-01-15T01:03:57.761Z,119.10
2023-01-15T01:06:25.397Z,129.80
2023-01-15T01:08:54.290Z,110.73
2023-01-15T01:11:23.833Z,140.80
2023-01-15T01:13:51.331Z,124.97
2023-01-15T01:16:26.818Z,122.23
2023-01-15T01:18:54.484Z,107.70
2023-01-15T01:21:22.080Z,128.90
2023-01-15T01:23:49.795Z,142.10
2023-01-15T01:26:18.720Z,126.00
2023-01-15T01:28:49.623Z,109.10
2023-01-15T01:31:17.516Z,143.40
2023-01-15T01:33:45.387Z,138.70
2023-01-15T01:36:12.860Z,130.13
2023-01-15T01:38:40.273Z,102.37
2023-01-15T01:41:07.754Z,134.47
2023-01-15T01:43:50.122Z,142.80
2023-01-15T01:46:19.076Z,136.00
2023-01-15T01:48:46.691Z,112.60
2023-01-15T01:51:14.164Z,140.70
2023-01-15T01:53:41.632Z,155.80
2023-01-15T01:56:09.794Z,150.67
2023-01-15T01:58:37.401Z,136.93
2023-01-15T02:01:05.849Z,131.00
2023-01-15T02:03:36.796Z,119.63
2023-01-15T02:06:07.120Z,140.97
2023-01-15T02:08:35.099Z,146.53
2023-01-15T02:11:02.677Z,117.60
2023-01-15T02:13:33.177Z,131.20
2023-01-15T02:16:04.148Z,138.90
2023-01-15T02:18:35.955Z,148.83
2023-01-15T02:21:08.848Z,133.00
2023-01-15T02:23:51.100Z,146.00
2023-01-15T02:26:28.089Z,154.13
2023-01-15T02:28:58.858Z,120.40
2023-01-15T02:31:28.623Z,120.17
2023-01-15T02:33:58.967Z,129.67
2023-01-15T02:36:28.073Z,138.50
2023-01-15T02:38:57.833Z,109.80
2023-01-15T02:41:26.960Z,130.00
2023-01-15T02:43:55.986Z,126.70
2023-01-15T02:46:27.691Z,106.63
2023-01-15T02:48:56.514Z,96.70
2023-01-15T02:51:25.245Z,114.07
2023-01-15T02:53:54.652Z,100.20
2023-01-15T02:56:24.926Z,66.93
2023-01-15T02:58:54.172Z,99.60
2023-01-15T03:01:26.181Z,114.20
2023-01-15T03:03:57.727Z,124.70
2023-01-15T03:06:28.805Z,128.20
2023-01-15T03:08:56.279Z,122.00
2023-01-15T03:11:23.762Z,137.27
2023-01-15T03:13:52.973Z,122.80
2023-01-15T03:16:38.113Z,95.97
2023-01-15T03:19:12.761Z,127.80
2023-01-15T03:21:42.203Z,141.50
2023-01-15T03:24:11.422Z,127.00
2023-01-15T03:26:39.040Z,107.87
2023-01-15T03:29:07.267Z,101.40
2023-01-15T03:31:35.169Z,101.10
2023-01-15T03:34:02.911Z,121.57
2023-01-15T03:36:31.643Z,115.10
2023-01-15T03:38:59.742Z,119.83
2023-01-15T03:41:30.159Z,102.30
2023-01-15T03:44:03.076Z,91.47
2023-01-15T03:46:36.552Z,105.00
2023-01-15T03:49:10.353Z,106.97
2023-01-15T03:51:41.204Z,109.53
2023-01-15T03:54:12.237Z,69.20
2023-01-15T03:56:43.275Z,106.40
2023-01-15T03:59:13.165Z,89.77
2023-01-15T04:01:41.943Z,88.77
2023-01-15T04:04:10.247Z,97.37
2023-01-15T04:06:39.404Z,124.10
2023-01-15T04:09:09.779Z,121.27
2023-01-15T04:11:37.391Z,119.97
2023-01-15T04:14:05.028Z,104.03
2023-01-15T04:16:33.087Z,91.00
2023-01-15T04:19:00.566Z,88.60
2023-01-15T04:21:28.082Z,103.40
2023-01-15T04:23:55.631Z,122.20
2023-01-15T04:26:24.388Z,114.33
2023-01-15T04:28:51.933Z,81.60
2023-01-15T04:31:19.790Z,78.30
2023-01-15T04:33:47.250Z,102.27
2023-01-15T04:36:14.893Z,114.73
2023-01-15T04:38:42.310Z,126.60
2023-01-15T04:41:28.130Z,109.60
2023-01-15T04:44:09.380Z,98.23
2023-01-15T04:46:37.773Z,94.10
2023-01-15T04:49:05.335Z,90.70
2023-01-15T04:51:32.778Z,101.37
2023-01-15T04:54:02.650Z,81.17
2023-01-15T04:56:30.063Z,65.07
2023-01-15T04:59:00.314Z,103.40
2023-01-15T05:01:27.887Z,85.83
2023-01-15T05:03:55.457Z,121.13
2023-01-15T05:06:22.885Z,117.70
2023-01-15T05:08:50.307Z,117.77
2023-01-15T05:11:17.869Z,99.37
2023-01-15T05:13:45.434Z,108.80
2023-01-15T05:16:15.752Z,122.07
2023-01-15T05:18:43.861Z,84.40
2023-01-15T05:21:15.179Z,98.27
2023-01-15T05:23:42.591Z,62.83
2023-01-15T05:26:10.025Z,62.63
2023-01-15T05:28:37.627Z,72.87
2023-01-15T05:31:09.115Z,87.73
2023-01-15T05:33:38.163Z,93.27
2023-01-15T05:36:06.470Z,68.83
2023-01-15T05:38:33.945Z,60.80
2023-01-15T05:41:04.075Z,91.33
2023-01-15T05:43:31.493Z,55.17
2023-01-15T05:46:02.493Z,33.90
2023-01-15T05:48:29.918Z,64.67
2023-01-15T05:51:02.722Z,80.20
2023-01-15T05:53:30.155Z,43.57
2023-01-15T05:55:57.684Z,46.93
2023-01-15T05:58:25.196Z,42.13
2023-01-15T06:00:52.651Z,34.10
2023-01-15T06:03:20.084Z,52.30
2023-01-15T06:05:51.260Z,64.37
2023-01-15T06:08:20.047Z,47.07
2023-01-15T06:10:47.545Z,60.20
2023-01-15T06:13:15.472Z,60.20
2023-01-15T06:15:43.141Z,62.10
2023-01-15T06:18:10.983Z,20.97
2023-01-15T06:20:38.399Z,39.80
2023-01-15T06:23:06.079Z,60.23
2023-01-15T06:25:36.841Z,70.27
2023-01-15T06:28:04.335Z,65.13
2023-01-15T06:30:31.755Z,46.90
2023-01-15T06:32:59.213Z,33.20
2023-01-15T06:35:26.986Z,47.80
2023-01-15T06:37:54.695Z,51.53
2023-01-15T06:40:23.499Z,41.63
2023-01-15T06:43:09.958Z,54.03
2023-01-15T06:45:55.855Z,40.57
2023-01-15T06:48:23.686Z,48.63
2023-01-15T06:50:51.196Z,70.20
2023-01-15T06:53:18.633Z,16.63
2023-01-15T06:55:46.133Z,25.50
2023-01-15T06:58:15.002Z,64.67
2023-01-15T07:00:45.142Z,50.80
2023-01-15T07:03:14.211Z,64.13
2023-01-15T07:05:41.830Z,54.00
2023-01-15T07:08:09.289Z,45.90
2023-01-15T07:10:37.031Z,49.67
2023-01-15T07:13:04.455Z,64.13
2023-01-15T07:15:34.870Z,56.87
2023-01-15T07:18:02.708Z,37.77
2023-01-15T07:20:30.171Z,23.30
2023-01-15T07:22:57.873Z,53.87
2023-01-15T07:25:25.339Z,55.47
2023-01-15T07:27:52.726Z,62.77
2023-01-15T07:30:20.238Z,45.40
2023-01-15T07:32:49.121Z,40.30
2023-01-15T07:35:16.890Z,47.07
2023-01-15T07:37:44.322Z,30.07
2023-01-15T07:40:12.792Z,43.27
2023-01-15T07:43:12.547Z,61.87
2023-01-15T07:46:03.178Z,52.27
2023-01-15T07:49:04.397Z,47.57
2023-01-15T07:51:31.863Z,35.87
2023-01-15T07:53:59.364Z,44.67
2023-01-15T07:56:27.021Z,48.33
2023-01-15T07:58:54.413Z,33.70
2023-01-15T08:01:21.890Z,34.57
2023-01-15T08:03:50.949Z,26.00
2023-01-15T08:06:18.358Z,30.80
2023-01-15T08:08:45.820Z,40.50
2023-01-15T08:11:45.371Z,58.53
2023-01-15T08:14:30.184Z,71.63
2023-01-15T08:16:57.621Z,37.50
2023-01-15T08:19:26.893Z,37.00
2023-01-15T08:21:54.343Z,24.53
2023-01-15T08:24:21.921Z,16.93
2023-01-15T08:26:49.451Z,28.30
2023-01-15T08:29:17.093Z,36.77
2023-01-15T08:31:44.582Z,44.37
2023-01-15T08:34:12.036Z,21.70
2023-01-15T08:36:40.877Z,38.60
2023-01-15T08:39:08.307Z,22.43
2023-01-15T08:41:36.169Z,30.53
2023-01-15T08:44:03.695Z,27.63
2023-01-15T08:46:31.070Z,38.93
2023-01-15T08:48:58.445Z,34.80
2023-01-15T08:51:25.931Z,44.70
2023-01-15T08:53:54.821Z,37.10
2023-01-15T08:56:22.267Z,22.87
2023-01-15T08:58:49.783Z,44.60
2023-01-15T09:01:17.477Z,51.20
2023-01-15T09:03:45.067Z,61.77
2023-01-15T09:06:13.459Z,67.97
2023-01-15T09:08:41.341Z,64.43
2023-01-15T09:11:12.948Z,77.37
2023-01-15T09:13:41.930Z,54.40
2023-01-15T09:16:10.634Z,66.00
2023-01-15T09:18:39.111Z,66.90
2023-01-15T09:21:06.892Z,50.27
2023-01-15T09:23:34.299Z,61.40
2023-01-15T09:26:02.405Z,58.50
2023-01-15T09:28:31.163Z,59.03
2023-01-15T09:30:58.638Z,51.47
2023-01-15T09:33:26.377Z,67.70
2023-01-15T09:35:53.866Z,61.40
2023-01-15T09:38:22.473Z,58.93
2023-01-15T09:40:51.326Z,57.30
2023-01-15T09:43:38.847Z,57.43
2023-01-15T09:46:14.150Z,66.90
2023-01-15T09:48:47.953Z,72.47
2023-01-15T09:51:19.559Z,45.10
2023-01-15T09:53:50.998Z,75.87
2023-01-15T09:56:22.149Z,42.70
2023-01-15T09:58:50.108Z,60.43
2023-01-15T10:01:20.526Z,60.00
2023-01-15T10:03:50.897Z,54.43
2023-01-15T10:06:22.391Z,46.73
2023-01-15T10:08:50.722Z,39.77
2023-01-15T10:11:46.989Z,44.37
2023-01-15T10:14:16.739Z,56.73
2023-01-15T10:16:45.557Z,47.43
2023-01-15T10:19:12.983Z,64.73
2023-01-15T10:21:47.960Z,31.83
2023-01-15T10:24:18.790Z,44.47
2023-01-15T10:26:51.011Z,63.27
2023-01-15T10:29:20.120Z,27.10
2023-01-15T10:31:52.699Z,22.80
2023-01-15T10:34:33.393Z,19.90
2023-01-15T10:37:04.465Z,11.33
2023-01-15T10:39:35.875Z,28.10
2023-01-15T10:42:08.794Z,7.90
2023-01-15T10:44:41.250Z,3.17
2023-01-15T10:47:13.624Z,5.50
2023-01-15T10:49:42.230Z,3.57
2023-01-15T10:52:16.530Z,1.63
2023-01-15T10:54:47.902Z,2.00
2023-01-15T10:57:18.522Z,1.60
2023-01-15T10:59:48.184Z,1.70
2023-01-15T11:02:22.937Z,1.33
2023-01-15T11:04:50.494Z,1.90
2023-01-15T11:07:18.288Z,2.33
2023-01-15T11:09:45.745Z,2.40
2023-01-15T11:12:37.922Z,1.80
2023-01-15T11:15:28.277Z,2.00
2023-01-15T11:18:14.903Z,2.50
2023-01-15T11:20:44.770Z,1.50
2023-01-15T11:23:13.097Z,1.03
2023-01-15T11:25:48.666Z,1.03
2023-01-15T11:28:17.185Z,1.50
2023-01-15T11:30:53.412Z,0.93
2023-01-15T11:33:24.099Z,1.40
2023-01-15T11:35:52.177Z,0.90
2023-01-15T11:38:23.006Z,0.80
2023-01-15T11:40:54.172Z,0.90
2023-01-15T11:43:39.679Z,1.20
2023-01-15T11:46:24.781Z,1.07
2023-01-15T11:49:11.209Z,0.90
2023-01-15T11:51:41.370Z,0.90
2023-01-15T11:54:11.086Z,0.97
2023-01-15T11:56:41.791Z,0.90
2023-01-15T11:59:11.432Z,0.80
2023-01-15T12:01:43.395Z,1.30
2023-01-15T12:04:24.756Z,0.80
2023-01-15T12:06:52.297Z,0.83
2023-01-15T12:09:25.738Z,1.17
2023-01-15T12:11:57.627Z,1.20
2023-01-15T12:14:32.593Z,1.00
2023-01-15T12:17:03.419Z,1.13
2023-01-15T12:19:37.104Z,0.80
2023-01-15T12:22:14.094Z,0.80
2023-01-15T12:24:59.522Z,1.17
2023-01-15T12:27:39.295Z,1.00
2023-01-15T12:30:15.074Z,1.00
2023-01-15T12:32:44.419Z,0.90
2023-01-15T12:35:16.722Z,0.87
2023-01-15T12:37:45.845Z,1.10
2023-01-15T12:40:19.753Z,1.03
2023-01-15T12:43:06.550Z,0.90
2023-01-15T12:45:35.502Z,1.00
2023-01-15T12:48:06.312Z,0.90
2023-01-15T12:50:39.772Z,0.80
2023-01-15T12:53:11.754Z,0.93
2023-01-15T12:55:42.745Z,1.20
2023-01-15T12:58:13.649Z,0.90
2023-01-15T13:00:42.925Z,1.20
2023-01-15T13:03:16.515Z,0.80
2023-01-15T13:05:47.924Z,1.00
2023-01-15T13:08:19.257Z,1.10
2023-01-15T13:10:46.981Z,0.83
2023-01-15T13:13:16.499Z,0.97
2023-01-15T13:15:51.372Z,1.20
2023-01-15T13:18:22.675Z,1.00
2023-01-15T13:20:52.272Z,1.20
2023-01-15T13:23:28.027Z,1.10
2023-01-15T13:26:08.094Z,1.00
2023-01-15T13:28:41.364Z,0.90
2023-01-15T13:31:14.173Z,1.27
2023-01-15T13:33:44.053Z,0.70
2023-01-15T13:36:15.923Z,0.73
2023-01-15T13:38:45.360Z,0.73
2023-01-15T13:41:38.351Z,1.10
2023-01-15T13:44:05.988Z,1.03
2023-01-15T13:46:33.405Z,0.80
2023-01-15T13:49:00.883Z,0.70
2023-01-15T13:51:31.443Z,0.60
2023-01-15T13:54:00.678Z,0.90
2023-01-15T13:56:28.984Z,0.90
2023-01-15T13:58:57.483Z,0.80
2023-01-15T14:01:26.226Z,1.00
2023-01-15T14:04:00.113Z,0.83
2023-01-15T14:06:38.003Z,0.83
2023-01-15T14:09:06.129Z,0.80
2023-01-15T14:11:36.499Z,0.90
2023-01-15T14:14:24.893Z,0.90
2023-01-15T14:16:56.391Z,1.10
2023-01-15T14:19:30.480Z,1.00
2023-01-15T14:22:03.794Z,0.90
2023-01-15T14:24:46.633Z,0.77
2023-01-15T14:27:17.038Z,0.80
2023-01-15T14:29:51.457Z,0.70
2023-01-15T14:32:24.738Z,0.60
2023-01-15T14:34:56.135Z,0.97
2023-01-15T14:37:27.572Z,1.10
2023-01-15T14:39:58.353Z,0.70
2023-01-15T14:42:45.473Z,0.90
2023-01-15T14:45:19.123Z,0.70
2023-01-15T14:47:48.180Z,0.90
2023-01-15T14:50:26.655Z,0.77
2023-01-15T14:52:56.014Z,0.90
2023-01-15T14:55:23.994Z,0.80
2023-01-15T14:57:56.597Z,0.90
2023-01-15T15:00:25.332Z,0.70
2023-01-15T15:02:52.806Z,0.93
2023-01-15T15:05:21.999Z,0.70
2023-01-15T15:07:52.871Z,1.00
2023-01-15T15:10:24.853Z,0.77
2023-01-15T15:12:55.835Z,1.10
2023-01-15T15:15:28.482Z,1.17
2023-01-15T15:18:00.296Z,1.30
2023-01-15T15:20:34.429Z,0.80
2023-01-15T15:23:05.620Z,1.53
2023-01-15T15:25:39.438Z,1.13
2023-01-15T15:28:07.802Z,1.00
2023-01-15T15:30:36.781Z,2.40
2023-01-15T15:33:05.529Z,1.63
2023-01-15T15:35:33.481Z,1.30
2023-01-15T15:38:03.602Z,2.10
2023-01-15T15:40:32.970Z,1.37
2023-01-15T15:43:22.104Z,0.97
2023-01-15T15:46:10.515Z,1.10
2023-01-15T15:48:45.509Z,0.93
2023-01-15T15:51:24.567Z,0.90
2023-01-15T15:53:51.969Z,1.47
2023-01-15T15:56:19.479Z,0.97
2023-01-15T15:58:48.701Z,0.80
2023-01-15T16:01:16.398Z,0.87
2023-01-15T16:03:47.037Z,0.90
2023-01-15T16:06:20.345Z,1.00
2023-01-15T16:08:52.821Z,0.90
2023-01-15T16:11:21.778Z,0.90
2023-01-15T16:13:51.926Z,0.80
2023-01-15T16:16:20.889Z,1.03
2023-01-15T16:18:49.428Z,0.90
2023-01-15T16:21:18.501Z,0.80
2023-01-15T16:23:56.536Z,0.80
2023-01-15T16:26:29.242Z,1.17
2023-01-15T16:28:59.387Z,0.90
2023-01-15T16:31:28.662Z,0.80
2023-01-15T16:33:57.014Z,0.90
2023-01-15T16:36:24.946Z,1.83
2023-01-15T16:38:52.732Z,1.10
2023-01-15T16:41:21.199Z,0.90
2023-01-15T16:43:53.705Z,1.20
2023-01-15T16:46:23.341Z,1.00
2023-01-15T16:48:50.906Z,0.97
2023-01-15T16:51:29.041Z,1.20
2023-01-15T16:53:56.510Z,0.90
2023-01-15T16:56:28.806Z,1.20
2023-01-15T16:58:56.392Z,0.90
2023-01-15T17:01:36.513Z,1.43
2023-01-15T17:04:04.640Z,1.43
2023-01-15T17:06:33.392Z,1.10
2023-01-15T17:09:00.877Z,1.30
2023-01-15T17:11:30.007Z,1.17
2023-01-15T17:14:15.162Z,1.00
2023-01-15T17:16:43.910Z,0.80
2023-01-15T17:19:11.770Z,1.53
2023-01-15T17:21:40.065Z,1.27
2023-01-15T17:24:08.490Z,1.20
2023-01-15T17:26:36.202Z,1.20
2023-01-15T17:29:04.065Z,1.30
2023-01-15T17:31:32.561Z,1.20
2023-01-15T17:34:02.408Z,1.57
2023-01-15T17:36:30.153Z,1.47
2023-01-15T17:38:57.810Z,1.47
2023-01-15T17:41:25.244Z,1.80
2023-01-15T17:43:52.711Z,1.30
2023-01-15T17:46:20.254Z,1.10
2023-01-15T17:48:47.882Z,1.17
2023-01-15T17:51:16.996Z,1.30
2023-01-15T17:53:44.387Z,1.60
2023-01-15T17:56:29.536Z,0.90
2023-01-15T17:59:14.313Z,1.40
2023-01-15T18:02:00.428Z,1.57
2023-01-15T18:04:47.313Z,1.70
2023-01-15T18:07:20.808Z,2.00
2023-01-15T18:09:50.321Z,1.63
2023-01-15T18:12:17.790Z,1.20
2023-01-15T18:14:45.252Z,1.10
2023-01-15T18:17:12.621Z,0.90
2023-01-15T18:19:40.036Z,1.23
2023-01-15T18:22:07.472Z,2.10
2023-01-15T18:24:36.308Z,2.40
2023-01-15T18:27:03.786Z,1.20
2023-01-15T18:29:31.224Z,1.20
2023-01-15T18:31:58.653Z,1.30
2023-01-15T18:34:26.294Z,1.53
2023-01-15T18:36:53.748Z,1.60
2023-01-15T18:39:21.284Z,1.23
2023-01-15T18:42:07.709Z,1.13
2023-01-15T18:44:52.631Z,1.60
2023-01-15T18:47:20.004Z,1.43
2023-01-15T18:49:47.796Z,1.50
2023-01-15T18:52:34.417Z,1.40
2023-01-15T18:55:02.106Z,1.30
2023-01-15T18:57:32.886Z,1.53
2023-01-15T19:00:00.329Z,1.30
2023-01-15T19:02:27.967Z,1.57
2023-01-15T19:04:55.484Z,1.00
2023-01-15T19:07:22.997Z,1.00
2023-01-15T19:09:50.541Z,1.20
2023-01-15T19:12:19.710Z,1.50
2023-01-15T19:15:06.177Z,1.27
2023-01-15T19:17:51.438Z,1.50
2023-01-15T19:20:20.006Z,0.97
2023-01-15T19:22:59.595Z,1.20
2023-01-15T19:25:27.087Z,1.30
2023-01-15T19:27:55.360Z,1.20
2023-01-15T19:30:24.841Z,0.90
2023-01-15T19:32:52.291Z,0.93
2023-01-15T19:35:19.720Z,1.20
2023-01-15T19:37:47.338Z,1.07
2023-01-15T19:40:16.231Z,1.30
2023-01-15T19:43:01.294Z,1.20
2023-01-15T19:45:47.484Z,1.20
2023-01-15T19:48:33.933Z,1.10
2023-01-15T19:51:02.929Z,1.10
2023-01-15T19:53:30.348Z,1.40
2023-01-15T19:55:57.886Z,1.30
2023-01-15T19:58:25.459Z,1.10
2023-01-15T20:00:54.256Z,1.30
2023-01-15T20:03:21.661Z,1.37
2023-01-15T20:05:49.120Z,1.33
2023-01-15T20:08:17.973Z,1.50
2023-01-15T20:10:46.152Z,1.53
2023-01-15T20:13:31.771Z,1.30
2023-01-15T20:16:06.131Z,1.20
2023-01-15T20:18:33.821Z,1.10
2023-01-15T20:21:01.239Z,1.20
2023-01-15T20:23:28.709Z,1.23
2023-01-15T20:26:01.038Z,1.00
2023-01-15T20:28:28.498Z,1.13
2023-01-15T20:30:56.205Z,1.20
2023-01-15T20:33:25.164Z,1.30
2023-01-15T20:35:54.010Z,1.30
2023-01-15T20:38:22.079Z,1.23
2023-01-15T20:40:51.860Z,1.50
2023-01-15T20:43:37.226Z,1.30
2023-01-15T20:46:08.059Z,1.10
2023-01-15T20:48:54.336Z,1.17
2023-01-15T20:51:21.795Z,1.40
2023-01-15T20:53:51.494Z,1.37
2023-01-15T20:56:19.076Z,1.50
2023-01-15T20:58:46.972Z,1.20
2023-01-15T21:01:14.636Z,1.23
2023-01-15T21:03:43.425Z,1.00
2023-01-15T21:06:10.964Z,1.27
2023-01-15T21:08:39.829Z,1.10
2023-01-15T21:11:07.354Z,0.97
2023-01-15T21:13:34.904Z,1.20
2023-01-15T21:16:03.580Z,1.17
2023-01-15T21:18:32.195Z,1.20
2023-01-15T21:21:00.934Z,1.50
2023-01-15T21:23:28.654Z,1.30
2023-01-15T21:25:59.543Z,0.87
2023-01-15T21:28:27.085Z,1.10
2023-01-15T21:30:54.519Z,1.17
2023-01-15T21:33:22.076Z,1.30
2023-01-15T21:35:49.486Z,1.20
2023-01-15T21:38:18.273Z,1.23
2023-01-15T21:40:45.752Z,1.10
2023-01-15T21:43:30.755Z,1.40
2023-01-15T21:46:04.719Z,0.90
2023-01-15T21:48:32.271Z,1.00
2023-01-15T21:50:59.668Z,1.20
2023-01-15T21:53:28.581Z,1.20
2023-01-15T21:55:55.999Z,1.10
2023-01-15T21:58:23.477Z,1.23
2023-01-15T22:00:50.930Z,1.17
2023-01-15T22:03:18.404Z,1.00
2023-01-15T22:05:46.303Z,1.10
2023-01-15T22:08:13.757Z,1.20
2023-01-15T22:10:42.543Z,1.00
2023-01-15T22:13:10.050Z,1.20
2023-01-15T22:15:37.517Z,1.17
2023-01-15T22:18:05.010Z,1.30
2023-01-15T22:20:32.612Z,1.27
2023-01-15T22:23:00.126Z,1.20
2023-01-15T22:25:27.532Z,1.03
2023-01-15T22:27:57.715Z,1.77
2023-01-15T22:30:25.148Z,1.10
2023-01-15T22:32:52.627Z,1.23
2023-01-15T22:35:20.258Z,1.07
2023-01-15T22:37:48.039Z,1.47
2023-01-15T22:40:15.499Z,1.47
2023-01-15T22:42:43.828Z,1.10
2023-01-15T22:45:12.946Z,1.20
2023-01-15T22:47:40.395Z,1.30
2023-01-15T22:50:08.105Z,1.00
2023-01-15T22:52:35.548Z,1.10
2023-01-15T22:55:03.006Z,0.90
2023-01-15T22:57:31.171Z,0.70
2023-01-15T22:59:58.916Z,1.20
2023-01-15T23:02:41.657Z,1.10
2023-01-15T23:05:09.772Z,1.00
2023-01-15T23:07:37.850Z,1.10
2023-01-15T23:10:06.962Z,1.00
2023-01-15T23:12:34.385Z,1.17
2023-01-15T23:15:02.117Z,1.00
2023-01-15T23:17:30.921Z,0.90
2023-01-15T23:19:58.342Z,1.20
2023-01-15T23:22:25.799Z,1.10
2023-01-15T23:24:53.279Z,0.90
2023-01-15T23:27:20.706Z,1.13
2023-01-15T23:29:48.983Z,1.07
2023-01-15T23:32:16.419Z,0.90
2023-01-15T23:34:45.269Z,0.83
2023-01-15T23:37:12.707Z,1.13
2023-01-15T23:39:40.130Z,0.73
2023-01-15T23:42:24.964Z,0.80
2023-01-15T23:45:09.875Z,0.90
2023-01-15T23:47:37.248Z,1.00
2023-01-15T23:50:06.435Z,0.80
2023-01-15T23:52:33.879Z,0.83
2023-01-15T23:55:01.264Z,0.93
2023-01-15T23:57:28.708Z,0.80
2023-01-15T23:59:56.093Z,0.97
